sensor_id;sensor_type;location;lat;lon;timestamp;pressure;altitude;pressure_sealevel;temperature;humidity
21877;BME280;11103;43.788;23.710;2022-09-27T00:01:05;-19190.91;;;16.46;100.00
21877;BME280;11103;43.788;23.710;2022-09-27T00:03:32;-19196.88;;;16.70;100.00
21877;BME280;11103;43.788;23.710;2022-09-27T00:06:21;-19197.16;;;16.71;100.00
21877;BME280;11103;43.788;23.710;2022-09-27T00:08:48;-19197.66;;;16.73;100.00
21877;BME280;11103;43.788;23.710;2022-09-27T00:13:44;-19196.88;;;16.70;100.00
21877;BME280;11103;43.788;23.710;2022-09-27T00:16:10;-19196.38;;;16.67;100.00
21877;BME280;11103;43.788;23.710;2022-09-27T00:18:35;-19196.38;;;16.67;100.00
21877;BME280;11103;43.788;23.710;2022-09-27T00:21:10;-19195.84;;;16.65;100.00
21877;BME280;11103;43.788;23.710;2022-09-27T00:23:36;-19194.03;;;16.58;100.00
21877;BME280;11103;43.788;23.710;2022-09-27T00:26:03;-19195.59;;;16.64;100.00
21877;BME280;11103;43.788;23.710;2022-09-27T00:28:29;-19194.03;;;16.58;100.00
21877;BME280;11103;43.788;23.710;2022-09-27T00:30:55;-19191.81;;;16.50;100.00
21877;BME280;11103;43.788;23.710;2022-09-27T00:33:21;-19191.69;;;16.49;100.00
21877;BME280;11103;43.788;23.710;2022-09-27T00:35:46;-19192.72;;;16.53;100.00
21877;BME280;11103;43.788;23.710;2022-09-27T00:38:12;-19194.94;;;16.62;100.00
21877;BME280;11103;43.788;23.710;2022-09-27T00:40:37;-19197.03;;;16.70;100.00
21877;BME280;11103;43.788;23.710;2022-09-27T00:43:17;-19195.59;;;16.64;100.00
21877;BME280;11103;43.788;23.710;2022-09-27T00:45:47;-19194.28;;;16.59;100.00
21877;BME280;11103;43.788;23.710;2022-09-27T00:48:17;-19197.28;;;16.71;100.00
21877;BME280;11103;43.788;23.710;2022-09-27T00:50:46;-19198.19;;;16.75;100.00
21877;BME280;11103;43.788;23.710;2022-09-27T00:53:18;-19198.97;;;16.78;100.00
21877;BME280;11103;43.788;23.710;2022-09-27T00:55:52;-19199.09;;;16.78;100.00
21877;BME280;11103;43.788;23.710;2022-09-27T00:58:23;-19199.63;;;16.80;100.00
21877;BME280;11103;43.788;23.710;2022-09-27T01:00:53;-19199.34;;;16.79;100.00
21877;BME280;11103;43.788;23.710;2022-09-27T01:04:09;-19197.94;;;16.74;100.00
21877;BME280;11103;43.788;23.710;2022-09-27T01:06:09;-19199.47;;;16.80;100.00
21877;BME280;11103;43.788;23.710;2022-09-27T01:08:35;-19196.75;;;16.69;100.00
21877;BME280;11103;43.788;23.710;2022-09-27T01:14:48;-19198.84;;;16.77;100.00
21877;BME280;11103;43.788;23.710;2022-09-27T01:22:28;-19197.66;;;16.73;100.00
21877;BME280;11103;43.788;23.710;2022-09-27T01:27:42;-19195.31;;;16.63;100.00
21877;BME280;11103;43.788;23.710;2022-09-27T01:30:22;-19196.63;;;16.69;100.00
21877;BME280;11103;43.788;23.710;2022-09-27T01:32:54;-19197.03;;;16.70;100.00
21877;BME280;11103;43.788;23.710;2022-09-27T01:35:36;-19196.09;;;16.66;100.00
21877;BME280;11103;43.788;23.710;2022-09-27T01:43:41;-19197.66;;;16.73;100.00
21877;BME280;11103;43.788;23.710;2022-09-27T01:46:16;-19195.84;;;16.65;100.00
21877;BME280;11103;43.788;23.710;2022-09-27T01:48:47;-19198.19;;;16.75;100.00
21877;BME280;11103;43.788;23.710;2022-09-27T01:51:22;-19197.94;;;16.74;100.00
21877;BME280;11103;43.788;23.710;2022-09-27T01:53:55;-19198.31;;;16.75;100.00
21877;BME280;11103;43.788;23.710;2022-09-27T01:56:31;-19198.97;;;16.78;100.00
21877;BME280;11103;43.788;23.710;2022-09-27T01:59:10;-19198.72;;;16.77;100.00
21877;BME280;11103;43.788;23.710;2022-09-27T02:01:39;-19197.94;;;16.74;100.00
21877;BME280;11103;43.788;23.710;2022-09-27T02:04:10;-19197.94;;;16.74;100.00
21877;BME280;11103;43.788;23.710;2022-09-27T02:06:41;-19197.66;;;16.73;100.00
21877;BME280;11103;43.788;23.710;2022-09-27T02:09:12;-19196.09;;;16.66;100.00
21877;BME280;11103;43.788;23.710;2022-09-27T02:11:41;-19197.41;;;16.72;100.00
21877;BME280;11103;43.788;23.710;2022-09-27T02:14:18;-19196.09;;;16.66;100.00
21877;BME280;11103;43.788;23.710;2022-09-27T02:20:07;-19195.59;;;16.64;100.00
21877;BME280;11103;43.788;23.710;2022-09-27T02:22:38;-19192.72;;;16.53;100.00
21877;BME280;11103;43.788;23.710;2022-09-27T02:25:15;-19195.06;;;16.62;100.00
21877;BME280;11103;43.788;23.710;2022-09-27T02:30:19;-19181.19;;;16.08;100.00
21877;BME280;11103;43.788;23.710;2022-09-27T02:32:44;-19194.03;;;16.58;100.00
21877;BME280;11103;43.788;23.710;2022-09-27T02:35:23;-19192.34;;;16.52;100.00
21877;BME280;11103;43.788;23.710;2022-09-27T02:37:49;-19193.78;;;16.57;100.00
21877;BME280;11103;43.788;23.710;2022-09-27T02:40:16;-19193.91;;;16.58;100.00
21877;BME280;11103;43.788;23.710;2022-09-27T02:42:42;-19194.81;;;16.61;100.00
21877;BME280;11103;43.788;23.710;2022-09-27T02:45:09;-19195.06;;;16.62;100.00
21877;BME280;11103;43.788;23.710;2022-09-27T02:47:43;-19195.06;;;16.62;100.00
21877;BME280;11103;43.788;23.710;2022-09-27T03:01:11;-19196.09;;;16.66;100.00
21877;BME280;11103;43.788;23.710;2022-09-27T03:03:52;-19195.47;;;16.64;100.00
21877;BME280;11103;43.788;23.710;2022-09-27T03:06:21;-19196.88;;;16.70;100.00
21877;BME280;11103;43.788;23.710;2022-09-27T03:08:48;-19196.25;;;16.67;100.00
21877;BME280;11103;43.788;23.710;2022-09-27T03:11:14;-19196.63;;;16.69;100.00
21877;BME280;11103;43.788;23.710;2022-09-27T03:13:40;-19189.34;;;16.40;100.00
21877;BME280;11103;43.788;23.710;2022-09-27T03:16:06;-19195.84;;;16.65;100.00
21877;BME280;11103;43.788;23.710;2022-09-27T03:18:32;-19198.19;;;16.75;100.00
21877;BME280;11103;43.788;23.710;2022-09-27T03:20:58;-19198.72;;;16.77;100.00
21877;BME280;11103;43.788;23.710;2022-09-27T03:23:23;-19199.22;;;16.79;100.00
21877;BME280;11103;43.788;23.710;2022-09-27T03:25:49;-19194.34;;;16.67;100.00
21877;BME280;11103;43.788;23.710;2022-09-27T03:28:15;-19197.59;;;16.80;100.00
21877;BME280;11103;43.788;23.710;2022-09-27T03:30:41;-19191.63;;;16.56;100.00
21877;BME280;11103;43.788;23.710;2022-09-27T03:33:07;-19197.47;;;16.79;100.00
21877;BME280;11103;43.788;23.710;2022-09-27T03:35:34;-18865.09;;;16.44;100.00
21877;BME280;11103;43.788;23.710;2022-09-27T03:38:00;-18873.13;;;16.76;100.00
21877;BME280;11103;43.788;23.710;2022-09-27T03:40:25;-18542.81;;;16.48;100.00
21877;BME280;11103;43.788;23.710;2022-09-27T03:42:51;-18547.06;;;16.65;100.00
21877;BME280;11103;43.788;23.710;2022-09-27T03:45:17;-18226.66;;;16.78;100.00
21877;BME280;11103;43.788;23.710;2022-09-27T03:47:42;-18226.78;;;16.78;100.00
21877;BME280;11103;43.788;23.710;2022-09-27T03:50:10;-18227.63;;;16.82;100.00
21877;BME280;11103;43.788;23.710;2022-09-27T03:52:36;-17903.84;;;16.81;100.00
21877;BME280;11103;43.788;23.710;2022-09-27T03:55:02;-17580.63;;;16.82;100.00
21877;BME280;11103;43.788;23.710;2022-09-27T03:57:27;-17257.22;;;16.83;100.00
21877;BME280;11103;43.788;23.710;2022-09-27T03:59:55;-16932.44;;;16.78;100.00
21877;BME280;11103;43.788;23.710;2022-09-27T04:02:20;-16609.00;;;16.79;100.00
21877;BME280;11103;43.788;23.710;2022-09-27T04:04:46;-16610.41;;;16.86;100.00
21877;BME280;11103;43.788;23.710;2022-09-27T04:07:12;-16286.78;;;16.86;100.00
21877;BME280;11103;43.788;23.710;2022-09-27T04:09:37;-15638.91;;;16.85;100.00
21877;BME280;11103;43.788;23.710;2022-09-27T04:12:03;-14666.75;;;16.82;100.00
21877;BME280;11103;43.788;23.710;2022-09-27T04:14:29;-13369.59;;;16.74;100.00
21877;BME280;11103;43.788;23.710;2022-09-27T04:16:54;-12722.50;;;16.80;100.00
21877;BME280;11103;43.788;23.710;2022-09-27T04:19:20;-12051.06;;;16.77;100.00
21877;BME280;11103;43.788;23.710;2022-09-27T04:21:45;-11425.41;;;16.76;100.00
21877;BME280;11103;43.788;23.710;2022-09-27T04:24:11;-10944.22;;;16.76;100.00
21877;BME280;11103;43.788;23.710;2022-09-27T04:26:37;-9565.66;;;16.74;100.00
21877;BME280;11103;43.788;23.710;2022-09-27T04:29:04;-8586.31;;;16.61;100.00
21877;BME280;11103;43.788;23.710;2022-09-27T04:31:29;-8133.03;;;16.66;100.00
21877;BME280;11103;43.788;23.710;2022-09-27T04:33:55;-8112.44;;;16.62;100.00
21877;BME280;11103;43.788;23.710;2022-09-27T04:36:22;-8410.72;;;16.22;100.00
21877;BME280;11103;43.788;23.710;2022-09-27T04:38:52;-8840.28;;;16.67;100.00
21877;BME280;11103;43.788;23.710;2022-09-27T04:41:18;-8738.66;;;16.64;100.00
21877;BME280;11103;43.788;23.710;2022-09-27T04:43:44;-8639.97;;;16.66;100.00
21877;BME280;11103;43.788;23.710;2022-09-27T04:46:09;-8906.13;;;16.67;100.00
21877;BME280;11103;43.788;23.710;2022-09-27T04:48:35;-8875.91;;;16.69;100.00
21877;BME280;11103;43.788;23.710;2022-09-27T04:51:02;-8604.25;;;16.63;100.00
21877;BME280;11103;43.788;23.710;2022-09-27T04:53:28;-8397.81;;;16.50;100.00
21877;BME280;11103;43.788;23.710;2022-09-27T04:55:57;-8308.06;;;16.68;100.00
21877;BME280;11103;43.788;23.710;2022-09-27T04:58:23;-7276.38;;;16.70;100.00
21877;BME280;11103;43.788;23.710;2022-09-27T05:00:49;-7035.22;;;16.66;100.00
21877;BME280;11103;43.788;23.710;2022-09-27T05:03:21;-6825.00;;;16.71;100.00
21877;BME280;11103;43.788;23.710;2022-09-27T05:05:46;-6216.38;;;16.72;100.00
21877;BME280;11103;43.788;23.710;2022-09-27T05:08:12;-6449.75;;;16.73;100.00
21877;BME280;11103;43.788;23.710;2022-09-27T05:10:38;-6335.63;;;16.73;100.00
21877;BME280;11103;43.788;23.710;2022-09-27T05:13:03;-6609.72;;;16.76;100.00
21877;BME280;11103;43.788;23.710;2022-09-27T05:15:29;-7177.91;;;16.77;100.00
21877;BME280;11103;43.788;23.710;2022-09-27T05:17:54;-7405.44;;;16.66;100.00
21877;BME280;11103;43.788;23.710;2022-09-27T05:20:20;-6414.56;;;16.79;100.00
21877;BME280;11103;43.788;23.710;2022-09-27T05:22:45;-6173.56;;;16.79;100.00
21877;BME280;11103;43.788;23.710;2022-09-27T05:25:11;-5559.59;;;16.80;100.00
21877;BME280;11103;43.788;23.710;2022-09-27T05:27:37;-5396.97;;;16.73;100.00
21877;BME280;11103;43.788;23.710;2022-09-27T05:30:03;-4072.38;;;16.82;100.00
21877;BME280;11103;43.788;23.710;2022-09-27T05:32:29;-3635.69;;;16.84;100.00
21877;BME280;11103;43.788;23.710;2022-09-27T05:34:54;-2998.31;;;16.88;100.00
21877;BME280;11103;43.788;23.710;2022-09-27T05:37:20;-2294.63;;;16.93;100.00
21877;BME280;11103;43.788;23.710;2022-09-27T05:39:45;-83.84;;;16.89;100.00
21877;BME280;11103;43.788;23.710;2022-09-27T05:42:11;990.16;;;17.05;100.00
21877;BME280;11103;43.788;23.710;2022-09-27T05:44:40;2883.78;;;17.11;100.00
21877;BME280;11103;43.788;23.710;2022-09-27T05:47:06;5342.50;;;17.05;100.00
21877;BME280;11103;43.788;23.710;2022-09-27T05:49:32;9186.84;;;17.11;100.00
21877;BME280;11103;43.788;23.710;2022-09-27T05:51:58;10597.38;;;17.11;100.00
21877;BME280;11103;43.788;23.710;2022-09-27T05:54:24;11605.63;;;17.13;100.00
21877;BME280;11103;43.788;23.710;2022-09-27T05:56:59;12535.00;;;17.14;100.00
21877;BME280;11103;43.788;23.710;2022-09-27T05:59:26;12126.81;;;17.15;100.00
21877;BME280;11103;43.788;23.710;2022-09-27T06:01:52;14281.31;;;17.13;100.00
21877;BME280;11103;43.788;23.710;2022-09-27T06:04:21;17367.84;;;17.12;100.00
21877;BME280;11103;43.788;23.710;2022-09-27T06:06:47;20256.16;;;17.14;100.00
21877;BME280;11103;43.788;23.710;2022-09-27T06:09:14;21600.41;;;17.28;100.00
21877;BME280;11103;43.788;23.710;2022-09-27T06:11:40;20565.56;;;17.26;100.00
21877;BME280;11103;43.788;23.710;2022-09-27T06:14:07;19312.28;;;17.49;100.00
21877;BME280;11103;43.788;23.710;2022-09-27T06:16:32;18556.47;;;17.61;100.00
21877;BME280;11103;43.788;23.710;2022-09-27T06:18:57;23837.28;;;17.65;100.00
21877;BME280;11103;43.788;23.710;2022-09-27T06:21:24;32726.69;;;17.68;100.00
21877;BME280;11103;43.788;23.710;2022-09-27T06:23:50;34691.72;;;17.77;100.00
21877;BME280;11103;43.788;23.710;2022-09-27T06:26:15;33998.13;;;17.79;100.00
21877;BME280;11103;43.788;23.710;2022-09-27T06:28:41;36771.19;;;17.90;100.00
21877;BME280;11103;43.788;23.710;2022-09-27T06:31:07;40098.53;;;17.92;100.00
21877;BME280;11103;43.788;23.710;2022-09-27T06:33:34;45862.41;;;17.94;100.00
21877;BME280;11103;43.788;23.710;2022-09-27T06:36:01;52607.78;;;17.88;100.00
21877;BME280;11103;43.788;23.710;2022-09-27T06:38:27;53257.34;;;17.85;100.00
21877;BME280;11103;43.788;23.710;2022-09-27T06:40:52;45880.66;;;17.91;100.00
21877;BME280;11103;43.788;23.710;2022-09-27T06:43:19;49446.56;;;17.92;100.00
21877;BME280;11103;43.788;23.710;2022-09-27T06:45:45;52148.88;;;17.93;100.00
21877;BME280;11103;43.788;23.710;2022-09-27T06:48:12;54200.66;;;17.93;100.00
21877;BME280;11103;43.788;23.710;2022-09-27T06:50:40;50101.78;;;17.91;100.00
21877;BME280;11103;43.788;23.710;2022-09-27T06:53:09;50764.09;;;17.94;100.00
21877;BME280;11103;43.788;23.710;2022-09-27T06:55:35;50122.72;;;18.06;100.00
21877;BME280;11103;43.788;23.710;2022-09-27T06:58:01;52633.31;;;18.05;100.00
21877;BME280;11103;43.788;23.710;2022-09-27T07:00:49;56521.53;;;18.02;100.00
21877;BME280;11103;43.788;23.710;2022-09-27T07:03:16;47549.00;;;18.19;100.00
21877;BME280;11103;43.788;23.710;2022-09-27T07:05:42;52315.13;;;18.22;100.00
21877;BME280;11103;43.788;23.710;2022-09-27T07:08:10;60486.97;;;18.36;100.00
21877;BME280;11103;43.788;23.710;2022-09-27T07:10:37;54908.44;;;18.59;100.00
21877;BME280;11103;43.788;23.710;2022-09-27T07:13:04;55942.81;;;18.73;100.00
21877;BME280;11103;43.788;23.710;2022-09-27T07:15:30;72238.28;;;18.72;100.00
21877;BME280;11103;43.788;23.710;2022-09-27T07:17:57;84205.88;;;18.75;100.00
21877;BME280;11103;43.788;23.710;2022-09-27T07:20:26;84073.63;;;18.69;100.00
21877;BME280;11103;43.788;23.710;2022-09-27T07:22:54;81642.91;;;18.91;100.00
21877;BME280;11103;43.788;23.710;2022-09-27T07:25:20;78026.00;;;19.03;100.00
21877;BME280;11103;43.788;23.710;2022-09-27T07:27:45;81349.41;;;18.96;100.00
21877;BME280;11103;43.788;23.710;2022-09-27T07:30:11;75235.19;;;19.29;100.00
21877;BME280;11103;43.788;23.710;2022-09-27T07:32:37;87126.72;;;19.31;100.00
21877;BME280;11103;43.788;23.710;2022-09-27T07:35:03;107934.28;;;19.28;100.00
21877;BME280;11103;43.788;23.710;2022-09-27T07:37:33;121428.69;;;19.26;100.00
21877;BME280;11103;43.788;23.710;2022-09-27T07:40:00;107390.66;;;19.28;100.00
21877;BME280;11103;43.788;23.710;2022-09-27T07:42:26;124982.19;;;19.16;100.00
21877;BME280;11103;43.788;23.710;2022-09-27T07:44:55;128398.47;;;19.10;100.00
21877;BME280;11103;43.788;23.710;2022-09-27T07:47:21;126544.97;;;19.09;100.00
21877;BME280;11103;43.788;23.710;2022-09-27T07:49:50;126540.28;;;19.10;100.00
21877;BME280;11103;43.788;23.710;2022-09-27T07:52:19;136116.47;;;19.17;100.00
21877;BME280;11103;43.788;23.710;2022-09-27T07:54:46;139131.38;;;19.27;100.00
21877;BME280;11103;43.788;23.710;2022-09-27T07:57:12;134932.63;;;19.39;100.00
21877;BME280;11103;43.788;23.710;2022-09-27T07:59:38;138925.03;;;19.42;100.00
21877;BME280;11103;43.788;23.710;2022-09-27T08:02:05;131369.38;;;19.72;100.00
21877;BME280;11103;43.788;23.710;2022-09-27T08:04:30;151364.94;;;19.68;100.00
21877;BME280;11103;43.788;23.710;2022-09-27T08:06:56;151357.19;;;19.65;100.00
21877;BME280;11103;43.788;23.710;2022-09-27T08:09:21;151346.91;;;19.61;100.00
21877;BME280;11103;43.788;23.710;2022-09-27T08:11:47;151433.28;;;19.95;100.00
21877;BME280;11103;43.788;23.710;2022-09-27T08:14:12;151501.69;;;20.22;100.00
21877;BME280;11103;43.788;23.710;2022-09-27T08:16:39;151501.69;;;20.22;100.00
21877;BME280;11103;43.788;23.710;2022-09-27T08:19:05;151514.63;;;20.27;100.00
21877;BME280;11103;43.788;23.710;2022-09-27T08:21:31;151524.94;;;20.31;100.00
21877;BME280;11103;43.788;23.710;2022-09-27T08:23:56;151536.59;;;20.35;100.00
21877;BME280;11103;43.788;23.710;2022-09-27T08:26:23;151571.41;;;20.49;100.00
21877;BME280;11103;43.788;23.710;2022-09-27T08:28:49;151567.53;;;20.47;100.00
21877;BME280;11103;43.788;23.710;2022-09-27T08:31:14;151592.06;;;20.57;100.00
21877;BME280;11103;43.788;23.710;2022-09-27T08:33:39;151573.97;;;20.50;100.00
21877;BME280;11103;43.788;23.710;2022-09-27T08:36:14;151541.72;;;20.37;100.00
21877;BME280;11103;43.788;23.710;2022-09-27T08:38:39;151528.84;;;20.32;100.00
21877;BME280;11103;43.788;23.710;2022-09-27T08:41:21;151522.38;;;20.30;100.00
21877;BME280;11103;43.788;23.710;2022-09-27T08:44:10;151561.06;;;20.45;100.00
21877;BME280;11103;43.788;23.710;2022-09-27T08:46:50;151617.88;;;20.67;100.00
21877;BME280;11103;43.788;23.710;2022-09-27T08:49:44;151654.00;;;20.81;100.00
21877;BME280;11103;43.788;23.710;2022-09-27T08:52:21;151630.75;;;20.72;100.00
21877;BME280;11103;43.788;23.710;2022-09-27T08:54:51;151610.13;;;20.64;100.00
21877;BME280;11103;43.788;23.710;2022-09-27T08:57:18;151620.47;;;20.68;100.00
21877;BME280;11103;43.788;23.710;2022-09-27T08:59:57;151630.75;;;20.72;100.00
21877;BME280;11103;43.788;23.710;2022-09-27T09:02:26;151648.81;;;20.79;100.00
21877;BME280;11103;43.788;23.710;2022-09-27T09:05:18;151544.34;;;20.38;100.00
21877;BME280;11103;43.788;23.710;2022-09-27T09:10:46;151579.16;;;20.52;100.00
21877;BME280;11103;43.788;23.710;2022-09-27T09:16:47;151592.06;;;20.57;100.00
21877;BME280;11103;43.788;23.710;2022-09-27T09:19:56;151624.31;;;20.69;100.00
21877;BME280;11103;43.788;23.710;2022-09-27T09:33:24;151522.38;;;20.30;100.00
21877;BME280;11103;43.788;23.710;2022-09-27T09:35:58;151483.59;;;20.14;100.00
21877;BME280;11103;43.788;23.710;2022-09-27T09:38:41;151442.31;;;19.98;100.00
21877;BME280;11103;43.788;23.710;2022-09-27T09:41:27;151571.41;;;20.49;100.00
21877;BME280;11103;43.788;23.710;2022-09-27T09:44:02;151592.06;;;20.57;100.00
21877;BME280;11103;43.788;23.710;2022-09-27T09:46:37;151568.81;;;20.48;100.00
21877;BME280;11103;43.788;23.710;2022-09-27T09:49:19;151545.56;;;20.39;100.00
21877;BME280;11103;43.788;23.710;2022-09-27T09:52:10;151528.84;;;20.32;100.00
21877;BME280;11103;43.788;23.710;2022-09-27T09:54:43;151533.97;;;20.34;100.00
21877;BME280;11103;43.788;23.710;2022-09-27T09:59:58;151586.88;;;20.55;100.00
21877;BME280;11103;43.788;23.710;2022-09-27T10:02:32;151621.72;;;20.68;100.00
21877;BME280;11103;43.788;23.710;2022-09-27T10:05:00;151651.41;;;20.80;100.00
21877;BME280;11103;43.788;23.710;2022-09-27T10:07:26;151660.47;;;20.84;100.00
21877;BME280;11103;43.788;23.710;2022-09-27T10:09:55;151643.66;;;20.77;100.00
21877;BME280;11103;43.788;23.710;2022-09-27T10:12:21;151648.81;;;20.79;100.00
21877;BME280;11103;43.788;23.710;2022-09-27T10:14:48;151659.16;;;20.83;100.00
21877;BME280;11103;43.788;23.710;2022-09-27T10:17:25;151641.13;;;20.76;100.00
21877;BME280;11103;43.788;23.710;2022-09-27T10:19:51;151638.53;;;20.75;100.00
21877;BME280;11103;43.788;23.710;2022-09-27T10:22:25;151648.81;;;20.79;100.00
21877;BME280;11103;43.788;23.710;2022-09-27T10:24:55;151660.47;;;20.84;100.00
21877;BME280;11103;43.788;23.710;2022-09-27T10:27:23;151682.41;;;20.92;100.00
21877;BME280;11103;43.788;23.710;2022-09-27T10:29:56;151666.91;;;20.86;100.00
21877;BME280;11103;43.788;23.710;2022-09-27T10:32:29;151638.53;;;20.75;100.00
21877;BME280;11103;43.788;23.710;2022-09-27T10:35:20;151602.38;;;20.61;100.00
21877;BME280;11103;43.788;23.710;2022-09-27T10:37:46;151544.34;;;20.38;100.00
21877;BME280;11103;43.788;23.710;2022-09-27T10:40:28;151514.63;;;20.27;100.00
21877;BME280;11103;43.788;23.710;2022-09-27T10:42:54;150293.09;;;20.09;100.00
21877;BME280;11103;43.788;23.710;2022-09-27T10:47:54;144285.59;;;19.83;100.00
21877;BME280;11103;43.788;23.710;2022-09-27T10:50:23;140290.75;;;19.81;100.00
21877;BME280;11103;43.788;23.710;2022-09-27T10:55:26;131913.25;;;19.95;100.00
21877;BME280;11103;43.788;23.710;2022-09-27T10:57:53;128339.03;;;20.10;100.00
21877;BME280;11103;43.788;23.710;2022-09-27T11:00:25;132494.56;;;20.13;100.00
21877;BME280;11103;43.788;23.710;2022-09-27T11:02:54;131065.47;;;20.23;100.00
21877;BME280;11103;43.788;23.710;2022-09-27T11:07:55;119543.22;;;20.21;100.00
21877;BME280;11103;43.788;23.710;2022-09-27T11:13:28;122446.88;;;20.57;100.00
21877;BME280;11103;43.788;23.710;2022-09-27T11:18:54;113368.19;;;20.53;100.00
21877;BME280;11103;43.788;23.710;2022-09-27T11:30:10;124371.59;;;20.51;100.00
21877;BME280;11103;43.788;23.710;2022-09-27T11:35:56;119856.44;;;20.88;100.00
21877;BME280;11103;43.788;23.710;2022-09-27T11:38:36;122184.97;;;21.13;100.00
21877;BME280;11103;43.788;23.710;2022-09-27T11:51:36;143928.22;;;22.42;100.00
21877;BME280;11103;43.788;23.710;2022-09-27T11:54:45;141150.28;;;22.50;100.00
21877;BME280;11103;43.788;23.710;2022-09-27T11:57:22;150699.16;;;22.51;100.00
21877;BME280;11103;43.788;23.710;2022-09-27T12:00:14;151415.69;;;22.57;100.00
21877;BME280;11103;43.788;23.710;2022-09-27T12:03:07;148693.94;;;22.47;100.00
21877;BME280;11103;43.788;23.710;2022-09-27T12:06:02;152037.72;;;22.31;100.00
21877;BME280;11103;43.788;23.710;2022-09-27T12:08:42;144390.94;;;22.25;100.00
21877;BME280;11103;43.788;23.710;2022-09-27T12:16:30;134194.88;;;21.89;100.00
21877;BME280;11103;43.788;23.710;2022-09-27T12:18:58;137951.06;;;21.94;100.00
21877;BME280;11103;43.788;23.710;2022-09-27T12:21:26;126162.03;;;21.94;100.00
21877;BME280;11103;43.788;23.710;2022-09-27T12:23:55;127734.72;;;22.04;100.00
21877;BME280;11103;43.788;23.710;2022-09-27T12:26:32;139434.50;;;22.14;100.00
21877;BME280;11103;43.788;23.710;2022-09-27T12:31:32;123039.41;;;22.87;100.00
21877;BME280;11103;43.788;23.710;2022-09-27T12:34:18;145831.38;;;22.94;100.00
21877;BME280;11103;43.788;23.710;2022-09-27T12:36:54;152143.69;;;22.72;100.00
21877;BME280;11103;43.788;23.710;2022-09-27T12:42:19;133121.34;;;23.34;100.00
21877;BME280;11103;43.788;23.710;2022-09-27T12:44:46;152364.91;;;23.58;100.00
21877;BME280;11103;43.788;23.710;2022-09-27T12:52:52;152259.06;;;23.56;100.00
21877;BME280;11103;43.788;23.710;2022-09-27T13:12:11;152106.19;;;22.58;100.00
21877;BME280;11103;43.788;23.710;2022-09-27T13:15:26;150803.69;;;22.40;100.00
21877;BME280;11103;43.788;23.710;2022-09-27T13:17:47;141980.84;;;22.39;100.00
21877;BME280;11103;43.788;23.710;2022-09-27T13:22:58;145731.69;;;22.29;100.00
21877;BME280;11103;43.788;23.710;2022-09-27T13:25:50;129073.09;;;22.20;100.00
21877;BME280;11103;43.788;23.710;2022-09-27T13:31:00;130281.28;;;21.95;100.00
21877;BME280;11103;43.788;23.710;2022-09-27T13:33:45;141898.50;;;21.90;100.00
21877;BME280;11103;43.788;23.710;2022-09-27T13:47:02;111831.38;;;21.32;100.00
21877;BME280;11103;43.788;23.710;2022-09-27T13:54:55;98796.47;;;21.15;100.00
21877;BME280;11103;43.788;23.710;2022-09-27T14:00:17;111809.69;;;21.73;100.00
21877;BME280;11103;43.788;23.710;2022-09-27T14:05:39;146972.66;;;22.80;100.00
21877;BME280;11103;43.788;23.710;2022-09-27T14:10:50;152300.19;;;23.33;100.00
21877;BME280;11103;43.788;23.710;2022-09-27T14:13:18;152275.63;;;23.24;100.00
21877;BME280;11103;43.788;23.710;2022-09-27T14:15:45;152247.19;;;23.13;100.00
21877;BME280;11103;43.788;23.710;2022-09-27T14:18:11;152330.00;;;23.45;100.00
21877;BME280;11103;43.788;23.710;2022-09-27T14:20:47;152295.00;;;23.31;100.00
21877;BME280;11103;43.788;23.710;2022-09-27T14:23:24;152291.09;;;23.30;100.00
21877;BME280;11103;43.788;23.710;2022-09-27T14:25:53;152263.94;;;23.19;100.00
21877;BME280;11103;43.788;23.710;2022-09-27T14:30:44;152169.59;;;22.82;100.00
21877;BME280;11103;43.788;23.710;2022-09-27T14:33:29;152138.53;;;22.70;100.00
21877;BME280;11103;43.788;23.710;2022-09-27T14:35:55;152155.38;;;22.77;100.00
21877;BME280;11103;43.788;23.710;2022-09-27T14:38:40;151310.06;;;22.91;100.00
21877;BME280;11103;43.788;23.710;2022-09-27T14:41:07;152240.72;;;23.10;100.00
21877;BME280;11103;43.788;23.710;2022-09-27T14:43:34;152217.41;;;23.01;100.00
21877;BME280;11103;43.788;23.710;2022-09-27T14:46:05;152249.72;;;23.13;100.00
21877;BME280;11103;43.788;23.710;2022-09-27T14:48:33;152167.00;;;22.81;100.00
21877;BME280;11103;43.788;23.710;2022-09-27T14:51:19;142122.69;;;22.59;100.00
21877;BME280;11103;43.788;23.710;2022-09-27T14:53:51;139893.97;;;22.50;100.00
21877;BME280;11103;43.788;23.710;2022-09-27T14:56:33;141165.47;;;22.39;100.00
21877;BME280;11103;43.788;23.710;2022-09-27T14:59:15;141248.00;;;22.15;100.00
21877;BME280;11103;43.788;23.710;2022-09-27T15:01:49;136620.59;;;21.99;100.00
21877;BME280;11103;43.788;23.710;2022-09-27T15:04:16;140061.31;;;22.26;100.00
21877;BME280;11103;43.788;23.710;2022-09-27T15:06:43;140263.38;;;22.44;100.00
21877;BME280;11103;43.788;23.710;2022-09-27T15:09:11;143325.72;;;22.57;100.00
21877;BME280;11103;43.788;23.710;2022-09-27T15:11:42;151526.81;;;22.59;100.00
21877;BME280;11103;43.788;23.710;2022-09-27T15:14:16;151829.75;;;22.73;100.00
21877;BME280;11103;43.788;23.710;2022-09-27T15:16:45;152163.13;;;22.80;100.00
21877;BME280;11103;43.788;23.710;2022-09-27T15:19:22;152163.13;;;22.80;100.00
21877;BME280;11103;43.788;23.710;2022-09-27T15:21:47;152134.69;;;22.69;100.00
21877;BME280;11103;43.788;23.710;2022-09-27T15:27:00;148587.06;;;22.45;100.00
21877;BME280;11103;43.788;23.710;2022-09-27T15:29:26;147666.94;;;22.45;100.00